Flight Track Log - Related Links

Times and Time Zones

All times are in EDT time to prevent confusion due to time zone crossing. See the VOZ1325 flight status page for this flight to view local times or setup timezone preferences in your user account.


Time Position Orientation Groundspeed Altitude Reporting Facility
EDT Latitude Longitude Course Direction KTS MPH feet Rate Location/Type
Thu 11:24:22 PM -42.7963 147.4577 316° Northwest 179 206 1,800  Level Aus ATC (RADAR)
Thu 11:24:57 PM -42.7699 147.4235 16° North 216 249 2,900 3,120 Climbing Aus ATC (RADAR)
Thu 11:25:37 PM -42.7217 147.4424 24° Northeast 273 314 5,700 3,771 Climbing Aus ATC (RADAR)
Thu 11:26:07 PM -42.6856 147.4641 358° North 280 322 7,300 3,000 Climbing Aus ATC (RADAR)
Thu 11:27:37 PM -42.5628 147.4570 350° North 306 352 11,700 2,920 Climbing Aus ATC (RADAR)
Thu 11:28:37 PM -42.4678 147.4347 350° North 343 395 14,600 3,078 Climbing Aus ATC (RADAR)
Thu 11:29:32 PM -42.3784 147.4125 350° North 346 398 17,600 2,968 Climbing Aus ATC (RADAR)
Thu 11:30:12 PM -42.3122 147.3962 350° North 353 406 19,300 2,400 Climbing Aus ATC (RADAR)
Thu 11:31:02 PM -42.2256 147.3756 350° North 372 428 21,200 2,202 Climbing Aus ATC (RADAR)
Thu 11:32:01 PM -42.1159 147.3493 350° North 393 452 23,300 2,121 Climbing Aus ATC (RADAR)
Thu 11:32:41 PM -42.0411 147.3314 350° North 400 460 24,700 2,080 Climbing Aus ATC (RADAR)
Thu 11:33:16 PM -41.9745 147.3153 350° North 408 470 25,900 1,835 Climbing Aus ATC (RADAR)
Thu 11:34:06 PM -41.8767 147.2918 350° North 422 486 27,300 1,860 Climbing Aus ATC (RADAR)
Thu 11:34:56 PM -41.7778 147.2684 350° North 425 489 29,000 1,980 Climbing Aus ATC (RADAR)
Thu 11:35:46 PM -41.6792 147.2445 350° North 424 488 30,600 1,835 Climbing Aus ATC (RADAR)
Thu 11:36:21 PM -41.6095 147.2282 343° North 427 491 31,600 1,745 Climbing Aus ATC (RADAR)
Thu 11:37:36 PM -41.4669 147.1707 338° Northwest 416 479 33,800 1,662 Climbing Aus ATC (RADAR)
Thu 11:38:31 PM -41.3665 147.1164 338° Northwest 413 475 35,200 1,255 Climbing Aus ATC (RADAR)
Thu 11:39:26 PM -41.2667 147.0625 338° Northwest 415 478 36,100 600 Climbing Aus ATC (RADAR)
Thu 11:40:01 PM -41.2021 147.0277 338° Northwest 424 488 36,100  Level Aus ATC (RADAR)
Thu 11:40:51 PM -41.1101 146.9789 337° Northwest 422 486 36,100  Level Aus ATC (RADAR)
Thu 11:41:26 PM -41.0456 146.9433 338° Northwest 424 488 36,100  Level Aus ATC (RADAR)
Thu 11:42:46 PM -40.8984 146.8652 338° Northwest 422 486 36,100  Level Aus ATC (RADAR)
Thu 11:43:41 PM -40.7971 146.8116 338° Northwest 424 488 36,100  Level Aus ATC (RADAR)
Thu 11:44:36 PM -40.6955 146.7574 338° Northwest 425 489 36,100  Level Aus ATC (RADAR)
Thu 11:45:30 PM -40.5938 146.7042 338° Northwest 425 489 36,100  Level Aus ATC (RADAR)
Thu 11:46:30 PM -40.4831 146.6452 338° Northwest 424 488 36,100  Level Aus ATC (RADAR)
Thu 11:48:00 PM -40.3170 146.5575 339° North 425 489 36,100  Level Aus ATC (RADAR)
Thu 11:48:55 PM -40.2150 146.5065 337° Northwest 424 488 36,100  Level Aus ATC (RADAR)
Thu 11:49:40 PM -40.1332 146.4612 339° North 421 484 36,100  Level Aus ATC (RADAR)
Thu 11:50:15 PM -40.0687 146.4287 338° Northwest 421 484 36,100  Level Aus ATC (RADAR)
Thu 11:51:10 PM -39.9679 146.3762 337° Northwest 423 487 36,100 36 Level Aus ATC (RADAR)
Thu 11:53:00 PM -39.7601 146.2592 337° Northwest 444 511 36,200 35 Climbing Aus ATC (RADAR)
Thu 11:54:00 PM -39.6446 146.1962 337° Northwest 445 512 36,200  Level Aus ATC (RADAR)
Thu 11:54:45 PM -39.5586 146.1481 337° Northwest 443 510 36,200  Level Aus ATC (RADAR)
Thu 11:55:25 PM -39.4819 146.1057 336° Northwest 445 512 36,200  Level Aus ATC (RADAR)
Thu 11:56:14 PM -39.3873 146.0514 337° Northwest 443 510 36,200  Level Aus ATC (RADAR)
Thu 11:58:24 PM -39.1399 145.9174 337° Northwest 441 507 36,200  Level Aus ATC (RADAR)
Thu 11:59:24 PM -39.0262 145.8566 337° Northwest 439 505 36,200  Level Aus ATC (RADAR)
Fri 12:00:04 AM -38.9510 145.8146 337° Northwest 439 505 36,200  Level Aus ATC (RADAR)
Fri 12:00:44 AM -38.8756 145.7736 337° Northwest 440 506 36,200 -1,200 Level Aus ATC (RADAR)
Fri 12:01:39 AM -38.7741 145.7179 337° Northwest 434 499 34,300 -2,978 Descending Aus ATC (RADAR)
Fri 12:02:59 AM -38.6223 145.6368 337° Northwest 455 524 29,500 -3,548 Descending Aus ATC (RADAR)
Fri 12:03:34 AM -38.5530 145.5991 337° Northwest 463 533 27,500 -3,067 Descending Aus ATC (RADAR)
Fri 12:04:29 AM -38.4457 145.5421 336° Northwest 454 522 24,900 -2,820 Descending Aus ATC (RADAR)
Fri 12:05:14 AM -38.3604 145.4947 337° Northwest 444 511 22,800 -2,753 Descending Aus ATC (RADAR)
Fri 12:05:54 AM -38.2845 145.4547 337° Northwest 443 510 21,000 -2,716 Descending Aus ATC (RADAR)
Fri 12:06:49 AM -38.1828 145.4005 337° Northwest 429 494 18,500 -2,640 Descending Aus ATC (RADAR)
Fri 12:08:24 AM -38.0171 145.3116 332° Northwest 399 459 14,400 -2,516 Descending Aus ATC (RADAR)
Fri 12:09:24 AM -37.9234 145.2477 332° Northwest 379 436 12,000 -1,909 Descending Aus ATC (RADAR)
Fri 12:10:14 AM -37.8480 145.1961 331° Northwest 370 426 10,900 -2,000 Descending Aus ATC (RADAR)
Fri 12:10:54 AM -37.7882 145.1549 332° Northwest 371 427 9,000 -2,400 Descending Aus ATC (RADAR)
Fri 12:11:49 AM -37.7072 145.1009 335° Northwest 357 411 7,100 -1,170 Descending Aus ATC (RADAR)
Fri 12:13:33 AM -37.5731 145.0223 335° Northwest 274 315 5,900 -768 Descending Aus ATC (RADAR)
Fri 12:14:33 AM -37.5040 144.9810 297° West 265 305 5,000 -764 Descending Aus ATC (RADAR)
Fri 12:15:23 AM -37.4815 144.9256 264° West 218 251 4,500 -867 Descending Aus ATC (RADAR)
Fri 12:16:03 AM -37.4859 144.8754 244° Southwest 215 247 3,700 -847 Descending Aus ATC (RADAR)
Fri 12:16:48 AM -37.5043 144.8286 182° South 194 223 3,300 -840 Descending Aus ATC (RADAR)
Fri 12:18:33 AM -37.5938 144.8238 172° South 167 192 1,600 -929 Descending Aus ATC (RADAR)
Fri 12:19:23 AM -37.6284 144.8302 173° South 150 173 900 -780 Descending Aus ATC (RADAR)
Fri 12:20:13 AM -37.6628 144.8359 173° South 147 169 300 -720 Descending Aus ATC (RADAR)

Login

Don't have an account? Register now (free) for customized features, flight alerts, and more!